Time;durP1;ratioP1;P1;durP2;ratioP2;P2;SDS_P1;SDS_P2;PMS_P1;PMS_P2;Temp;Humidity;BMP_temperature;BMP_pressure;BME280_temperature;BME280_humidity;BME280_pressure;Samples;Min_cycle;Max_cycle;Signal;HPM_P1;HPM_P2
2021/10/06 00:00:39;;;;;;;7.00;3.45;;;;;;;13.95;100.00;100016.19;5052787;28;20557;-64
2021/10/06 00:03:04;;;;;;;5.28;2.83;;;;;;;13.93;100.00;100012.31;5052618;28;20496;-64
2021/10/06 00:05:30;;;;;;;5.80;3.20;;;;;;;13.96;100.00;100022.34;5061214;28;20029;-64
2021/10/06 00:07:56;;;;;;;5.55;2.88;;;;;;;13.94;100.00;100025.44;5050736;28;20505;-64
2021/10/06 00:10:21;;;;;;;6.63;2.95;;;;;;;13.92;100.00;100029.72;5055430;28;20028;-62
2021/10/06 00:12:46;;;;;;;6.28;3.15;;;;;;;13.96;100.00;100033.19;5038723;28;20386;-63
2021/10/06 00:15:12;;;;;;;8.73;3.42;;;;;;;13.95;100.00;100026.25;5052640;28;20029;-64
2021/10/06 00:17:40;;;;;;;5.28;2.88;;;;;;;13.95;100.00;100035.13;5037264;28;20033;-64
2021/10/06 00:20:07;;;;;;;7.00;3.25;;;;;;;13.92;100.00;100046.72;5062308;28;20036;-64
2021/10/06 00:22:33;;;;;;;6.80;3.25;;;;;;;13.97;100.00;100051.75;5055353;28;20045;-64
2021/10/06 00:24:58;;;;;;;5.20;2.75;;;;;;;13.96;100.00;100044.00;5052450;28;20040;-64
2021/10/06 00:27:24;;;;;;;6.97;3.28;;;;;;;13.98;100.00;100052.50;5055201;28;20029;-64
2021/10/06 00:29:49;;;;;;;4.97;2.67;;;;;;;13.93;100.00;100045.59;5057340;28;20444;-65
2021/10/06 00:32:15;;;;;;;8.50;2.92;;;;;;;13.97;100.00;100049.06;5049632;28;20143;-64
2021/10/06 00:34:40;;;;;;;5.68;2.75;;;;;;;13.94;100.00;100055.22;5048625;28;20032;-64
2021/10/06 00:37:06;;;;;;;4.55;2.72;;;;;;;13.96;100.00;100058.31;5051973;28;20843;-64
2021/10/06 00:39:31;;;;;;;6.53;2.92;;;;;;;14.00;100.00;100061.00;5051168;28;20399;-64
2021/10/06 00:41:57;;;;;;;8.45;2.95;;;;;;;13.98;100.00;100052.50;5052354;28;20079;-64
2021/10/06 00:44:22;;;;;;;5.28;3.10;;;;;;;14.01;100.00;100054.44;5061464;28;20033;-65
2021/10/06 00:46:49;;;;;;;5.13;2.72;;;;;;;14.00;100.00;100061.78;5046587;28;20017;-64
2021/10/06 00:49:15;;;;;;;5.45;2.65;;;;;;;13.99;100.00;100054.06;5054171;28;20035;-64
2021/10/06 00:51:41;;;;;;;5.78;3.08;;;;;;;14.01;100.00;100057.94;5055125;28;20056;-65
2021/10/06 00:54:08;;;;;;;5.45;2.88;;;;;;;13.96;100.00;100061.03;5057690;28;20646;-64
2021/10/06 00:56:34;;;;;;;6.78;3.17;;;;;;;14.00;100.00;100061.78;5055423;28;20041;-65
2021/10/06 00:59:00;;;;;;;4.93;2.95;;;;;;;13.98;100.00;100056.00;5051139;28;20065;-64
2021/10/06 01:01:25;;;;;;;7.22;3.13;;;;;;;14.00;100.00;100061.78;5048301;28;20095;-64
2021/10/06 01:03:51;;;;;;;5.22;2.92;;;;;;;14.00;100.00;100061.00;5041537;28;20095;-64
2021/10/06 01:06:16;;;;;;;5.70;3.35;;;;;;;13.96;100.00;100060.25;5053143;28;20111;-65
2021/10/06 01:08:43;;;;;;;6.80;3.08;;;;;;;13.98;100.00;100068.75;5048685;28;20167;-63
2021/10/06 01:11:09;;;;;;;5.05;2.90;;;;;;;13.95;100.00;100081.16;5048590;28;20375;-63
2021/10/06 01:13:36;;;;;;;5.72;3.10;;;;;;;13.97;100.00;100081.53;5053124;28;20040;-64
2021/10/06 01:16:02;;;;;;;7.00;3.33;;;;;;;14.00;100.00;100079.97;5049309;28;20392;-64
2021/10/06 01:18:27;;;;;;;6.00;2.83;;;;;;;13.98;100.00;100085.00;5041299;28;20041;-64
2021/10/06 01:20:53;;;;;;;7.03;3.03;;;;;;;13.95;100.00;100088.50;5061126;28;20040;-64
2021/10/06 01:23:19;;;;;;;5.53;2.75;;;;;;;13.98;100.00;100085.78;5051356;28;20044;-64
2021/10/06 01:25:44;;;;;;;6.10;3.28;;;;;;;14.01;100.00;100095.06;5050827;28;20025;-64
2021/10/06 01:28:10;;;;;;;6.22;3.03;;;;;;;13.98;100.00;100104.72;5050352;28;20037;-64
2021/10/06 01:30:35;;;;;;;6.00;3.13;;;;;;;13.98;100.00;100102.03;5048041;28;20045;-65
2021/10/06 01:33:01;;;;;;;6.90;3.45;;;;;;;14.02;100.00;100104.72;5058913;28;20045;-64
2021/10/06 01:35:26;;;;;;;9.05;3.67;;;;;;;13.98;100.00;100110.16;5054819;28;20063;-65
2021/10/06 01:37:52;;;;;;;9.20;3.83;;;;;;;13.98;100.00;100104.72;5043866;28;20145;-65
2021/10/06 01:40:24;;;;;;;6.25;3.13;;;;;;;13.97;100.00;100105.91;5045937;28;20115;-64
2021/10/06 01:42:52;;;;;;;6.78;3.30;;;;;;;13.94;100.00;100103.97;5049556;28;20056;-64
2021/10/06 01:45:23;;;;;;;6.18;3.13;;;;;;;13.93;100.00;100110.56;5061843;28;20028;-64
2021/10/06 01:47:49;;;;;;;5.53;3.00;;;;;;;13.90;100.00;100118.69;5035908;28;20040;-63
2021/10/06 01:50:21;;;;;;;5.63;3.10;;;;;;;13.88;100.00;100116.34;5051080;28;20428;-64
2021/10/06 01:52:46;;;;;;;;;;;;;;;13.79;100.00;100124.09;5047252;28;20044;-63
2021/10/06 01:55:12;;;;;;;7.60;2.85;;;;;;;13.88;100.00;100127.19;5050040;28;19913;-63
2021/10/06 01:57:37;;;;;;;6.45;3.38;;;;;;;13.89;100.00;100130.66;5049282;28;20037;-65
2021/10/06 02:00:24;;;;;;;6.45;3.13;;;;;;;13.89;100.00;100130.66;5050232;28;20041;-63
2021/10/06 02:02:49;;;;;;;7.95;3.08;;;;;;;13.90;100.00;100126.81;5014165;28;20042;-64
2021/10/06 02:05:15;;;;;;;7.38;3.50;;;;;;;13.91;100.00;100125.63;5014724;28;20645;-64
2021/10/06 02:07:40;;;;;;;9.88;3.88;;;;;;;13.87;100.00;100133.00;5007884;28;20053;-65
2021/10/06 02:10:06;;;;;;;7.35;3.42;;;;;;;13.82;100.00;100136.84;5008549;28;20044;-64
2021/10/06 02:12:32;;;;;;;7.43;3.70;;;;;;;13.80;100.00;100138.41;5018922;28;20100;-64
2021/10/06 02:14:57;;;;;;;6.82;3.20;;;;;;;13.74;100.00;100124.50;5006879;28;20046;-64
2021/10/06 02:17:23;;;;;;;6.70;3.40;;;;;;;13.71;100.00;100135.31;5005411;28;20081;-64
2021/10/06 02:19:49;;;;;;;6.38;3.55;;;;;;;13.68;100.00;100131.47;5006400;28;20052;-64
2021/10/06 02:22:14;;;;;;;5.85;3.33;;;;;;;13.70;100.00;100137.28;5013055;28;20092;-64
2021/10/06 02:24:41;;;;;;;7.00;3.50;;;;;;;13.65;100.00;100142.28;5006161;28;20033;-63
2021/10/06 02:27:07;;;;;;;8.05;3.47;;;;;;;13.62;100.00;100138.44;5018836;28;20112;-64
2021/10/06 02:29:32;;;;;;;6.30;3.42;;;;;;;13.65;100.00;100139.56;5010050;28;20463;-64
2021/10/06 02:31:58;;;;;;;7.75;3.50;;;;;;;13.65;100.00;100139.56;5014489;28;20548;-64
2021/10/06 02:34:23;;;;;;;13.05;3.95;;;;;;;13.57;100.00;100138.81;5011911;28;20046;-63
2021/10/06 02:36:49;;;;;;;10.15;3.95;;;;;;;13.57;100.00;100136.09;5014059;28;20379;-64
2021/10/06 02:39:15;;;;;;;6.70;3.92;;;;;;;13.46;100.00;100144.22;5018070;28;20069;-63
2021/10/06 02:41:40;;;;;;;8.75;3.97;;;;;;;13.50;100.00;100149.63;5044345;28;20040;-65
2021/10/06 02:44:06;;;;;;;8.25;4.00;;;;;;;13.51;100.00;100156.59;5049841;28;20021;-65
2021/10/06 02:46:31;;;;;;;7.97;3.90;;;;;;;13.52;100.00;100153.50;5055418;28;20501;-65
2021/10/06 02:48:57;;;;;;;7.60;3.17;;;;;;;13.51;100.00;100153.91;5050842;28;20504;-63
2021/10/06 02:51:22;;;;;;;7.57;3.53;;;;;;;13.44;100.00;100159.28;5049420;28;20033;-64
2021/10/06 02:53:48;;;;;;;7.57;3.60;;;;;;;13.48;100.00;100162.78;5048402;28;20614;-64
2021/10/06 02:56:14;;;;;;;7.20;3.45;;;;;;;13.50;100.00;100161.25;5052424;28;20036;-64
2021/10/06 02:58:40;;;;;;;7.05;3.42;;;;;;;13.57;100.00;100169.34;5051613;28;20082;-64
2021/10/06 03:01:06;;;;;;;8.13;4.28;;;;;;;13.57;100.00;100176.69;5048667;28;20116;-65
2021/10/06 03:03:31;;;;;;;8.75;3.45;;;;;;;13.56;100.00;100180.56;5056285;28;20167;-64
2021/10/06 03:05:57;;;;;;;6.68;3.65;;;;;;;13.53;100.00;100189.44;5054771;28;20048;-63
2021/10/06 03:08:22;;;;;;;6.05;3.45;;;;;;;13.61;100.00;100185.56;5052463;28;20035;-64
2021/10/06 03:10:48;;;;;;;6.50;3.20;;;;;;;13.63;100.00;100185.97;5058298;28;20171;-63
2021/10/06 03:13:13;;;;;;;7.75;3.45;;;;;;;13.66;100.00;100185.22;5059678;28;20021;-64
2021/10/06 03:15:39;;;;;;;5.55;3.13;;;;;;;13.61;100.00;100188.28;5052910;28;20040;-64
2021/10/06 03:18:04;;;;;;;11.20;3.70;;;;;;;13.63;100.00;100202.19;5049243;28;20737;-64
2021/10/06 03:20:30;;;;;;;9.57;3.85;;;;;;;13.64;100.00;100195.66;5064575;28;20059;-64
2021/10/06 03:22:55;;;;;;;4.68;3.00;;;;;;;13.63;100.00;100198.75;5053915;28;20033;-64
2021/10/06 03:25:20;;;;;;;7.47;3.45;;;;;;;13.66;100.00;100208.78;5053273;28;20025;-63
2021/10/06 03:27:46;;;;;;;6.50;3.17;;;;;;;13.68;100.00;100215.38;5051968;28;20536;-63
2021/10/06 03:30:12;;;;;;;7.00;3.20;;;;;;;13.58;100.00;100208.00;5058981;28;20032;-64
2021/10/06 03:32:38;;;;;;;7.68;3.42;;;;;;;13.61;100.00;100218.03;5055975;28;20052;-63
2021/10/06 03:35:05;;;;;;;6.53;3.22;;;;;;;13.62;100.00;100219.59;5052539;28;20029;-64
2021/10/06 03:37:30;;;;;;;5.57;3.03;;;;;;;13.66;100.00;100214.97;5060933;28;20569;-63
2021/10/06 03:39:56;;;;;;;5.15;3.13;;;;;;;13.67;100.00;100224.63;5052831;28;20040;-63
2021/10/06 03:42:21;;;;;;;6.47;3.67;;;;;;;13.66;100.00;100231.22;5053338;28;20485;-64
2021/10/06 03:44:47;;;;;;;5.32;3.08;;;;;;;13.66;100.00;100230.44;5049800;28;20470;-64
2021/10/06 03:47:12;;;;;;;4.97;2.83;;;;;;;13.66;100.00;100236.63;5051626;28;20108;-65
2021/10/06 03:49:38;;;;;;;4.57;2.97;;;;;;;13.69;100.00;100237.75;5049781;28;20090;-64
2021/10/06 03:52:03;;;;;;;5.32;3.40;;;;;;;13.69;100.00;100243.97;5058170;28;20028;-64
2021/10/06 03:54:29;;;;;;;6.13;3.42;;;;;;;13.68;100.00;100249.75;5052933;28;20068;-65
2021/10/06 03:56:54;;;;;;;12.50;3.53;;;;;;;13.71;100.00;100249.75;5046454;28;20049;-64
2021/10/06 03:59:20;;;;;;;4.90;2.92;;;;;;;13.65;100.00;100255.94;5052353;28;20040;-63
2021/10/06 04:01:46;;;;;;;7.60;3.28;;;;;;;13.68;100.00;100255.94;5051245;28;20397;-65
2021/10/06 04:04:12;;;;;;;5.47;3.08;;;;;;;13.70;100.00;100264.47;5051395;28;20029;-64
2021/10/06 04:06:37;;;;;;;6.03;3.50;;;;;;;13.68;100.00;100269.47;5052390;28;20036;-65
2021/10/06 04:09:03;;;;;;;9.82;3.45;;;;;;;13.68;100.00;100260.59;5051337;28;20037;-64
2021/10/06 04:11:28;;;;;;;6.95;3.28;;;;;;;13.65;100.00;100264.81;5052947;28;20033;-65
2021/10/06 04:13:54;;;;;;;6.32;2.92;;;;;;;13.65;100.00;100261.34;5051196;28;20033;-65
2021/10/06 04:16:20;;;;;;;5.22;2.95;;;;;;;13.64;100.00;100271.41;5053171;28;20029;-65
2021/10/06 04:18:45;;;;;;;8.93;3.10;;;;;;;13.60;100.00;100265.22;5050571;28;20033;-65
2021/10/06 04:21:10;;;;;;;6.20;3.22;;;;;;;13.61;100.00;100269.47;5052624;28;20107;-63
2021/10/06 04:23:36;;;;;;;5.43;2.72;;;;;;;13.61;100.00;100269.47;5057403;28;20105;-63
2021/10/06 04:26:01;;;;;;;6.53;3.15;;;;;;;13.58;100.00;100272.94;5058113;28;20386;-63
2021/10/06 04:28:27;;;;;;;5.72;3.42;;;;;;;13.57;100.00;100276.78;5050188;28;20045;-62
2021/10/06 04:30:52;;;;;;;5.32;3.28;;;;;;;13.58;100.00;100279.13;5051100;28;20048;-64
2021/10/06 04:33:18;;;;;;;5.22;3.03;;;;;;;13.54;100.00;100280.28;5056414;28;20041;-64
2021/10/06 04:35:43;;;;;;;5.13;2.67;;;;;;;13.52;100.00;100285.28;5058127;28;20037;-64
2021/10/06 04:38:09;;;;;;;5.45;2.95;;;;;;;13.50;100.00;100287.59;5042179;28;20037;-64
2021/10/06 04:40:34;;;;;;;4.90;2.95;;;;;;;13.41;100.00;100289.91;5058680;28;20452;-65
2021/10/06 04:42:59;;;;;;;5.13;3.00;;;;;;;13.37;100.00;100286.41;5048038;28;20040;-65
2021/10/06 04:45:25;;;;;;;9.02;3.13;;;;;;;13.37;100.00;100295.31;5049798;28;20029;-65
2021/10/06 04:47:51;;;;;;;4.75;2.78;;;;;;;13.33;100.00;100294.53;5060554;28;20069;-62
2021/10/06 04:50:17;;;;;;;6.18;2.42;;;;;;;13.32;100.00;100298.38;5054863;28;20078;-62
2021/10/06 04:52:42;;;;;;;4.57;2.88;;;;;;;13.31;100.00;100304.16;5051331;28;20043;-62
2021/10/06 04:55:08;;;;;;;6.00;2.88;;;;;;;13.30;100.00;100305.31;5057166;28;20029;-64
2021/10/06 04:57:33;;;;;;;6.60;3.08;;;;;;;13.34;100.00;100311.50;5057740;28;20040;-64
2021/10/06 04:59:59;;;;;;;5.88;2.90;;;;;;;13.26;100.00;100312.63;5050744;28;20481;-62
2021/10/06 05:02:25;;;;;;;6.53;3.35;;;;;;;13.27;100.00;100320.38;5055808;28;20071;-62
2021/10/06 05:04:50;;;;;;;6.40;3.50;;;;;;;13.20;100.00;100312.22;5059350;28;20503;-62
2021/10/06 05:07:16;;;;;;;5.75;3.05;;;;;;;13.20;100.00;100319.59;5051707;28;20036;-64
2021/10/06 05:09:41;;;;;;;5.22;2.92;;;;;;;13.17;100.00;100323.81;5048394;28;20504;-63
2021/10/06 05:12:07;;;;;;;8.73;2.78;;;;;;;13.18;100.00;100327.31;5063246;28;20032;-63
2021/10/06 05:14:32;;;;;;;5.70;3.35;;;;;;;13.09;100.00;100329.56;5050102;28;20059;-64
2021/10/06 05:17:02;;;;;;;5.57;3.08;;;;;;;13.05;100.00;100345.00;5061094;28;20032;-63
2021/10/06 05:19:27;;;;;;;5.57;3.03;;;;;;;13.04;100.00;100343.44;5054797;28;20075;-62
2021/10/06 05:21:53;;;;;;;4.53;2.88;;;;;;;13.03;100.00;100350.78;5059208;28;20570;-64
2021/10/06 05:24:18;;;;;;;7.10;3.78;;;;;;;13.11;100.00;100340.78;5051197;28;20159;-64
2021/10/06 05:26:43;;;;;;;8.88;3.53;;;;;;;12.99;100.00;100336.44;5047704;28;20032;-64
2021/10/06 05:29:09;;;;;;;10.05;3.45;;;;;;;12.96;100.00;100348.03;5038685;28;20028;-62
2021/10/06 05:31:34;;;;;;;5.53;3.20;;;;;;;12.97;100.00;100348.81;5045476;28;20503;-64
2021/10/06 05:34:00;;;;;;;5.55;3.03;;;;;;;12.90;100.00;100359.56;5050602;28;20055;-62
2021/10/06 05:36:25;;;;;;;6.03;3.15;;;;;;;12.90;100.00;100359.56;5044332;28;20024;-63
2021/10/06 05:38:51;;;;;;;6.47;3.28;;;;;;;12.88;100.00;100365.34;5045445;28;20492;-62
2021/10/06 05:41:16;;;;;;;6.97;3.28;;;;;;;12.81;100.00;100359.13;5042719;28;20405;-62
2021/10/06 05:43:42;;;;;;;5.88;2.85;;;;;;;12.85;100.00;100365.31;5039872;28;20047;-63
2021/10/06 05:46:07;;;;;;;8.55;3.47;;;;;;;12.91;100.00;100369.22;5041356;28;20115;-63
2021/10/06 05:48:33;;;;;;;10.77;3.45;;;;;;;12.92;100.00;100373.47;5048822;28;20037;-64
2021/10/06 05:50:58;;;;;;;5.53;2.72;;;;;;;12.90;100.00;100379.25;5047180;28;20037;-63
2021/10/06 05:53:24;;;;;;;5.20;2.67;;;;;;;12.91;100.00;100383.50;5041264;28;20041;-63
2021/10/06 05:55:50;;;;;;;6.72;3.03;;;;;;;12.84;100.00;100386.16;5045395;28;20116;-63
2021/10/06 05:58:18;;;;;;;6.40;3.00;;;;;;;12.86;100.00;100385.78;5047807;28;20456;-63
2021/10/06 06:00:43;;;;;;;8.85;3.22;;;;;;;12.86;100.00;100391.19;5045561;28;20696;-65
2021/10/06 06:03:09;;;;;;;6.43;3.30;;;;;;;12.81;100.00;100386.94;5046524;28;20045;-62
2021/10/06 06:05:38;;;;;;;7.22;3.15;;;;;;;12.72;100.00;100388.41;5036474;28;20052;-61
2021/10/06 06:08:04;;;;;;;6.10;2.92;;;;;;;12.74;100.00;100394.22;5041823;28;20028;-65
2021/10/06 06:10:29;;;;;;;7.20;3.28;;;;;;;12.74;100.00;100402.31;5048286;28;20029;-62
2021/10/06 06:12:55;;;;;;;7.28;3.25;;;;;;;12.75;100.00;100399.22;5053490;28;20374;-62
2021/10/06 06:15:20;;;;;;;6.35;3.05;;;;;;;12.76;100.00;100397.28;5045334;28;20681;-63
2021/10/06 06:17:45;;;;;;;8.40;4.10;;;;;;;12.74;100.00;100407.72;5046500;28;20541;-63
2021/10/06 06:20:14;;;;;;;4.82;2.72;;;;;;;12.76;100.00;100413.50;5058166;28;20397;-61
2021/10/06 06:22:40;;;;;;;5.50;2.63;;;;;;;12.69;100.00;100420.44;5045324;28;20033;-63
2021/10/06 06:25:08;;;;;;;7.38;2.80;;;;;;;12.73;100.00;100422.38;5041653;28;20402;-64
2021/10/06 06:27:33;;;;;;;6.60;3.13;;;;;;;12.73;100.00;100425.84;5047172;28;20033;-63
2021/10/06 06:29:59;;;;;;;5.85;3.28;;;;;;;12.79;100.00;100421.66;5045174;28;20029;-63
2021/10/06 06:32:24;;;;;;;6.13;3.38;;;;;;;12.79;100.00;100431.69;5048739;28;20494;-64
2021/10/06 06:34:50;;;;;;;11.02;3.85;;;;;;;12.81;100.00;100429.38;5045218;28;20093;-62
2021/10/06 06:37:16;;;;;;;7.68;3.10;;;;;;;12.76;100.00;100435.91;5044017;28;20040;-62
2021/10/06 06:39:42;;;;;;;7.13;3.22;;;;;;;12.76;100.00;100437.81;5051921;28;20048;-62
2021/10/06 06:42:07;;;;;;;7.53;3.03;;;;;;;12.71;100.00;100444.38;5036269;28;20029;-62
2021/10/06 06:44:33;;;;;;;4.55;2.80;;;;;;;12.73;100.00;100452.09;5058426;28;20389;-63
2021/10/06 06:46:58;;;;;;;5.30;2.90;;;;;;;12.81;100.00;100457.19;5046672;28;20634;-61
2021/10/06 06:49:24;;;;;;;6.47;3.13;;;;;;;12.81;100.00;100457.19;5048821;28;20031;-62
2021/10/06 06:51:49;;;;;;;4.88;2.78;;;;;;;12.81;100.00;100457.19;5054240;28;20048;-62
2021/10/06 06:54:15;;;;;;;7.22;3.25;;;;;;;12.93;100.00;100461.53;5045851;28;20044;-62
2021/10/06 06:57:01;;;;;;;5.32;2.88;;;;;;;12.89;100.00;100460.72;5030820;28;20482;-62
2021/10/06 06:59:26;;;;;;;5.15;2.70;;;;;;;12.92;100.00;100468.84;4973842;28;20426;-64
2021/10/06 07:01:53;;;;;;;7.22;2.53;;;;;;;12.95;100.00;100461.94;4994485;28;20082;-62
2021/10/06 07:04:20;;;;;;;7.10;3.08;;;;;;;12.96;100.00;100466.94;4988903;28;20046;-62
2021/10/06 07:06:45;;;;;;;4.97;2.97;;;;;;;12.98;100.00;100469.28;4988181;28;20046;-62
2021/10/06 07:09:11;;;;;;;5.53;3.03;;;;;;;13.02;100.00;100481.69;4988323;28;20041;-62
2021/10/06 07:11:36;;;;;;;4.93;2.85;;;;;;;13.07;100.00;100473.25;4969438;28;20063;-63
2021/10/06 07:14:02;;;;;;;6.35;3.17;;;;;;;13.14;100.00;100483.34;4984590;28;20051;-64
2021/10/06 07:16:27;;;;;;;4.63;2.70;;;;;;;13.23;100.00;100497.28;4990335;28;20056;-62
2021/10/06 07:18:53;;;;;;;5.78;2.90;;;;;;;13.28;100.00;100499.63;4986455;28;20726;-62
2021/10/06 07:21:18;;;;;;;4.22;2.85;;;;;;;13.33;100.00;100488.47;4987294;28;20038;-63
2021/10/06 07:23:44;;;;;;;5.30;2.85;;;;;;;13.43;100.00;100495.91;4984967;28;20054;-62
2021/10/06 07:26:11;;;;;;;5.18;3.10;;;;;;;13.54;100.00;100504.84;4991156;28;20069;-62
2021/10/06 07:28:37;;;;;;;4.28;2.58;;;;;;;13.65;100.00;100513.78;4986254;28;20158;-62
2021/10/06 07:31:02;;;;;;;3.78;2.75;;;;;;;13.76;100.00;100511.16;4985729;28;20054;-64
2021/10/06 07:33:28;;;;;;;5.25;2.63;;;;;;;13.86;100.00;100526.69;4969589;28;20034;-61
2021/10/06 07:35:53;;;;;;;3.75;2.15;;;;;;;14.01;100.00;100523.66;5000618;28;20501;-64
2021/10/06 07:38:19;;;;;;;3.83;2.35;;;;;;;14.11;100.00;100522.13;5041308;28;20036;-64
2021/10/06 07:40:44;;;;;;;4.20;2.30;;;;;;;14.18;100.00;100522.94;5040801;28;20052;-62
2021/10/06 07:43:10;;;;;;;4.68;2.30;;;;;;;14.30;100.00;100530.72;5039572;28;20086;-62
2021/10/06 07:45:37;;;;;;;4.30;2.17;;;;;;;14.48;100.00;100526.13;5051815;28;20029;-62
2021/10/06 07:48:03;;;;;;;3.67;1.95;;;;;;;14.58;98.54;100534.66;5051450;28;20044;-63
2021/10/06 07:50:29;;;;;;;2.88;1.73;;;;;;;14.70;98.40;100526.97;5040447;28;20092;-62
2021/10/06 07:52:54;;;;;;;5.10;2.10;;;;;;;14.84;97.49;100537.06;5053426;28;20131;-62
2021/10/06 07:55:22;;;;;;;4.43;2.55;;;;;;;14.92;98.19;100538.59;5043580;28;20037;-63
2021/10/06 07:57:48;;;;;;;2.38;1.60;;;;;;;15.03;97.42;100536.66;5046428;28;20028;-63
2021/10/06 08:00:14;;;;;;;3.53;1.70;;;;;;;15.21;96.65;100546.34;5045641;28;20041;-63
2021/10/06 08:02:40;;;;;;;3.65;1.92;;;;;;;15.29;95.45;100541.72;5045120;28;20041;-63
2021/10/06 08:05:05;;;;;;;2.33;1.60;;;;;;;15.39;95.82;100549.03;5053970;28;20504;-62
2021/10/06 08:07:31;;;;;;;3.53;2.10;;;;;;;15.48;93.39;100552.19;5045346;28;20040;-65
2021/10/06 08:09:57;;;;;;;2.35;1.58;;;;;;;15.50;94.42;100546.38;5040408;28;20040;-62
2021/10/06 08:12:23;;;;;;;2.15;1.73;;;;;;;15.54;93.74;100558.00;5035555;28;20033;-62
2021/10/06 08:14:48;;;;;;;2.63;1.80;;;;;;;15.67;93.36;100556.41;5044544;28;20044;-63
2021/10/06 08:17:14;;;;;;;3.17;1.92;;;;;;;15.82;91.65;100561.41;5051811;28;20047;-64
2021/10/06 08:19:39;;;;;;;3.50;1.85;;;;;;;15.84;91.19;100561.03;5043594;28;20386;-63
2021/10/06 08:22:05;;;;;;;3.42;1.30;;;;;;;15.80;90.15;100571.91;5052059;28;20045;-62
2021/10/06 08:24:30;;;;;;;4.50;1.73;;;;;;;15.88;91.11;100568.00;5038456;28;20122;-63
2021/10/06 08:26:56;;;;;;;5.80;1.38;;;;;;;16.00;91.61;100575.75;5040454;28;20025;-62
2021/10/06 08:29:21;;;;;;;2.75;1.30;;;;;;;16.16;90.87;100570.63;5045102;28;20503;-62
2021/10/06 08:31:47;;;;;;;3.78;1.55;;;;;;;16.26;88.75;100580.69;5057933;28;20037;-62
2021/10/06 08:34:12;;;;;;;3.35;1.35;;;;;;;16.36;87.66;100587.22;5046222;28;20029;-63
2021/10/06 08:36:38;;;;;;;4.28;1.45;;;;;;;16.50;87.17;100586.44;5046981;28;20056;-63
2021/10/06 08:39:08;;;;;;;1.48;1.17;;;;;;;16.47;86.46;100587.97;5047248;28;20032;-62
2021/10/06 08:41:34;;;;;;;9.32;3.17;;;;;;;16.58;84.46;100593.38;5053140;28;20098;-63
2021/10/06 08:44:00;;;;;;;1.88;1.20;;;;;;;16.70;84.86;100599.16;5047994;28;20048;-62
2021/10/06 08:46:27;;;;;;;1.25;1.15;;;;;;;16.81;84.48;100607.25;5052390;28;20044;-62
2021/10/06 08:48:53;;;;;;;1.50;1.15;;;;;;;17.05;83.57;100596.19;5042477;28;20123;-62
2021/10/06 08:51:21;;;;;;;3.10;1.40;;;;;;;17.23;83.66;100600.75;5047684;28;20028;-65
2021/10/06 08:53:48;;;;;;;1.98;1.50;;;;;;;17.32;79.50;100612.72;5046662;28;20028;-62
2021/10/06 08:56:13;;;;;;;2.20;1.42;;;;;;;17.36;80.12;100610.75;5049378;28;20025;-64
2021/10/06 08:58:39;;;;;;;4.20;1.10;;;;;;;17.52;80.21;100618.41;5047005;28;20106;-63
2021/10/06 09:01:04;;;;;;;3.25;1.00;;;;;;;17.67;79.00;100620.59;5048028;28;20060;-64
2021/10/06 09:03:32;;;;;;;2.50;1.27;;;;;;;17.66;78.50;100624.53;5042743;28;20040;-63
2021/10/06 09:06:04;;;;;;;1.48;1.08;;;;;;;17.72;79.27;100620.19;5056063;28;20040;-62
2021/10/06 09:08:30;;;;;;;1.10;1.00;;;;;;;17.91;79.53;100619.59;5042308;28;20037;-65
2021/10/06 09:10:56;;;;;;;3.15;1.20;;;;;;;18.16;76.97;100634.91;5050694;28;20021;-64
2021/10/06 09:13:27;;;;;;;1.35;1.02;;;;;;;18.23;76.42;100643.03;5042604;28;20044;-63
2021/10/06 09:15:53;;;;;;;3.67;1.20;;;;;;;18.35;75.09;100650.69;5044363;28;20127;-63
2021/10/06 09:18:21;;;;;;;3.15;1.38;;;;;;;18.36;74.40;100653.00;5042703;28;20131;-63
2021/10/06 09:20:47;;;;;;;1.40;1.10;;;;;;;18.24;73.70;100642.63;5043921;28;20060;-62
2021/10/06 09:23:15;;;;;;;1.55;0.93;;;;;;;18.13;74.08;100650.16;5046226;28;20079;-64
2021/10/06 09:26:04;;;;;;;2.00;1.08;;;;;;;17.75;76.00;100654.78;5041027;28;20450;-63
2021/10/06 09:28:58;;;;;;;1.08;0.93;;;;;;;17.56;77.52;100654.56;5045632;28;20079;-63
2021/10/06 09:31:26;;;;;;;3.15;1.67;;;;;;;17.35;78.02;100660.91;5037256;28;20409;-63
2021/10/06 09:33:54;;;;;;;2.15;1.30;;;;;;;17.33;78.81;100665.22;5042109;28;20040;-63
2021/10/06 09:36:25;;;;;;;1.73;1.00;;;;;;;17.23;78.48;100661.38;5048526;28;20021;-63
2021/10/06 09:38:54;;;;;;;1.42;1.02;;;;;;;17.11;78.08;100665.34;5040410;28;20032;-63
2021/10/06 09:41:43;;;;;;;3.80;1.00;;;;;;;16.97;78.96;100659.22;5043607;28;20171;-64
2021/10/06 09:44:20;;;;;;;1.20;1.00;;;;;;;16.95;80.10;100656.91;5048111;28;20082;-63
2021/10/06 09:46:58;;;;;;;4.32;1.00;;;;;;;16.89;80.79;100658.50;5043481;28;20048;-63
2021/10/06 09:49:25;;;;;;;1.77;1.35;;;;;;;17.02;81.18;100667.75;5039634;28;20493;-64
2021/10/06 09:51:52;;;;;;;3.60;1.13;;;;;;;17.05;81.69;100672.38;5040989;28;22513;-64
2021/10/06 09:54:19;;;;;;;1.65;1.00;;;;;;;17.07;80.70;100670.03;5045576;28;20099;-63
2021/10/06 09:56:47;;;;;;;2.90;1.88;;;;;;;17.03;81.60;100666.56;5041636;28;20152;-62
2021/10/06 09:59:14;;;;;;;1.70;0.90;;;;;;;17.07;80.32;100675.47;5047916;28;20029;-62
2021/10/06 10:01:45;;;;;;;2.63;0.95;;;;;;;17.10;79.81;100684.81;5047902;28;20036;-64
2021/10/06 10:04:12;;;;;;;1.02;0.90;;;;;;;17.12;79.85;100682.47;5049138;28;20029;-64
2021/10/06 10:06:39;;;;;;;1.00;0.90;;;;;;;17.09;77.92;100675.09;5041105;28;20029;-65
2021/10/06 10:09:09;;;;;;;1.20;0.85;;;;;;;17.06;78.95;100679.41;5043183;28;20074;-63
2021/10/06 10:11:38;;;;;;;2.85;1.00;;;;;;;16.97;79.22;100678.28;5043516;28;20029;-64
2021/10/06 10:14:06;;;;;;;5.07;1.40;;;;;;;16.97;78.62;100689.16;5046214;28;20060;-65
2021/10/06 10:16:32;;;;;;;2.97;1.15;;;;;;;16.92;79.62;100682.19;5042166;28;20052;-63
2021/10/06 10:19:04;;;;;;;0.93;0.85;;;;;;;16.95;78.38;100689.56;5041888;28;20115;-64
2021/10/06 10:21:31;;;;;;;1.20;1.10;;;;;;;16.88;79.12;100699.69;5049116;28;20124;-62
2021/10/06 10:24:11;;;;;;;1.45;0.90;;;;;;;16.84;78.68;100701.66;5049477;28;20440;-64
2021/10/06 10:26:53;;;;;;;1.85;1.25;;;;;;;16.87;78.56;100709.03;5040499;28;20114;-62
2021/10/06 10:29:34;;;;;;;4.32;1.10;;;;;;;16.82;77.70;100709.44;5041406;28;20124;-64
2021/10/06 10:32:11;;;;;;;1.45;0.95;;;;;;;16.73;77.58;100712.59;5048320;28;20033;-63
2021/10/06 10:35:08;;;;;;;1.40;0.82;;;;;;;16.73;78.11;100714.53;5058223;28;20107;-63
2021/10/06 10:37:48;;;;;;;1.48;0.93;;;;;;;16.74;78.76;100721.53;5033626;28;20047;-62
2021/10/06 10:40:38;;;;;;;1.10;1.00;;;;;;;16.80;79.35;100718.00;5053827;28;20032;-63
2021/10/06 10:43:09;;;;;;;1.13;1.00;;;;;;;16.90;78.86;100725.34;5028044;28;20040;-63
2021/10/06 10:45:38;;;;;;;1.02;0.85;;;;;;;16.96;78.01;100726.47;5057780;28;20033;-65
2021/10/06 10:48:07;;;;;;;2.00;1.23;;;;;;;16.98;78.08;100736.97;5049101;28;20029;-64
2021/10/06 10:50:42;;;;;;;2.45;1.00;;;;;;;16.96;78.94;100731.13;5050446;28;20033;-65
2021/10/06 10:53:09;;;;;;;2.58;0.98;;;;;;;16.95;78.68;100733.09;5044174;28;20029;-67
2021/10/06 10:55:55;;;;;;;1.83;0.85;;;;;;;16.96;79.26;100739.31;5045096;28;20035;-64
2021/10/06 10:58:37;;;;;;;2.97;1.15;;;;;;;17.05;77.92;100742.38;5047259;28;20036;-63
2021/10/06 11:01:05;;;;;;;1.38;0.73;;;;;;;17.05;77.68;100742.38;5046691;28;20044;-64
2021/10/06 11:03:32;;;;;;;2.60;0.80;;;;;;;17.04;78.78;100744.31;5049089;28;20107;-64
2021/10/06 11:05:58;;;;;;;1.33;1.00;;;;;;;17.10;78.01;100747.41;5045343;28;20029;-64
2021/10/06 11:08:33;;;;;;;0.77;0.77;;;;;;;16.94;76.08;100750.59;5048370;28;20033;-63
2021/10/06 11:11:11;;;;;;;1.40;0.90;;;;;;;16.88;76.50;100762.25;5043770;28;20044;-64
2021/10/06 11:13:48;;;;;;;1.38;0.90;;;;;;;16.85;77.24;100768.50;5048275;28;20519;-64
2021/10/06 11:16:14;;;;;;;3.25;1.00;;;;;;;16.77;77.92;100765.03;5051750;28;20051;-63
2021/10/06 11:18:44;;;;;;;0.88;0.80;;;;;;;16.78;78.30;100760.38;5049313;28;20680;-64